Questo sito fa uso di cookie per migliorare l’esperienza di navigazione degli utenti e per raccogliere informazioni sull’utilizzo del sito stesso. Proseguendo nella navigazione si accetta l’uso dei cookie; in caso contrario è possibile abbandonare il sito.

[source: ADDS]
METAR
LIPA 270955Z 21006KT CAVOK 14/02 Q1025 RMK SKC VIS MIN 9999 WIND THR05 18006KT WIND THR23 21006KT A3028 BLU =
LIPB 270950Z 16006KT 9999 SCT050 14/04 Q1025 =
LIPC 270955Z 06013KT 9999 FEW035 13/04 Q1025 RMK FEW VIS MIN 9999 WIND THR11 07011KT WIND THR29 07014KT BLU =
LIPE 271020Z 07008KT 030V120 9999 FEW050 14/M01 Q1026 =
LIPF 270955Z 07006KT CAVOK 14/05 Q1026 RMK SKC VIS MIN 9999 =
LIPH 271020Z VRB05KT CAVOK 14/01 Q1026 =
LIPI 270955Z /////KT CAVOK 14/01 Q1025 RMK SKC VIS MIN 9999 WIND THR06 21003KT WIND THR24 VRB02KT BLU =
LIPK 270950Z 06010KT 9999 FEW040 13/M02 Q1025 =
LIPL 270955Z /////KT CAVOK 13/M04 Q1027 RMK FEW FEW100 VIS MIN 9999 WIND THR31 09002KT BLU =
LIPO 270950Z 13004KT CAVOK 13/M01 Q1026 =
LIPQ 271020Z 34007KT 300V020 CAVOK 15/M01 Q1025 =
LIPR 271015Z 04013KT 9999 FEW040 14/08 Q1025 =
LIPS 270955Z 26005KT CAVOK 14/02 Q1025 RMK SKC VIS MIN 9999 WIND THR26 27004KT WIND THR08 22004KT BLU =
LIPX 271020Z 09005KT CAVOK 14/M02 Q1026 =
LIPY 270950Z 04013KT 010V070 9999 FEW030 13/02 Q1023 =
LIPZ 271020Z 17007KT 120V210 CAVOK 12/M01 Q1026 NOSIG =
LIVC 270955Z 04032G43KT 9999 FEW002 M05/M08 Q1020 RMK FEW MON LIB VAL NIL VIS MIN 9999 =
LIVD 270955Z /////KT CAVOK 08/M02 Q1024 RMK SKC VIS MIN 9999 =
LIVE 270955Z 21004KT CAVOK 07/M02 Q1022 RMK SKC VIS MIN 9999 =
LIVF 270955Z 33006KT 9999 SCT025 SCT035 09/01 Q1021 RMK BKN MON S W CIME INC NC VAL NIL VIS MIN 9999 =
LIVO 270955Z 10007KT CAVOK 09/M00 Q1024 RMK SKC VIS MIN 9999 =
LIVP 270955Z 13005KT 070V210 9999 1500S FEW000 M01/M02 Q1022 RMK FEW MON S INVIS VAL S INVIS VIS MIN 1500S =
LIVR 270955Z 12007KT 9999 FEW020 01/M02 Q1024 RMK FEW MON LIB VIS MIN 9999 =
LIVT 270955Z 27001KT CAVOK 12/02 Q1025 RMK SKC QUK 0 QUL 0 VIS MAR 20 KM VIS MIN 9999 =
LIMC 271020Z 12006KT 080V190 9999 SCT060 13/M01 Q1027 NOSIG =
LIME 271020Z 13006KT 090V190 9999 SCT060 12/00 Q1026 NOSIG =
LIMF 271020Z 08003KT 040V130 9999 BKN050 11/01 Q1027 =
LIMG 270950Z 04012G23KT CAVOK 16/07 Q1023 =
LIMH 270955Z /////KT CAVOK M05/M30 Q1023 RMK SKC MON LIB VAL S ET W MAR CLD VIS MIN 9999 =
LIMJ 271020Z 03009KT 350V090 CAVOK 16/05 Q1024 =
LIMK 270955Z 00000KT 9999 BKN035 06/01 Q1025 RMK OVC SCT060 VAL NIL VIS MIN 9999 =
LIML 271020Z 11007KT 050V150 9999 FEW060 14/02 Q1026 NOSIG =
LIMN 270955Z 08006KT CAVOK 13/01 Q1026 RMK FEW FEW080 VIS MIN 9999 BLU =
LIMS 270955Z 11008KT 070V170 9999 FEW012 12/07 Q1025 RMK FEW VIS MIN 9999 WIND THR30 09007KT BLU =
LIMT 270955Z 03008KT CAVOK 04/M04 Q1023 RMK SKC MON LIB VAL NIL VIS MIN 9999 =
LIMU 270955Z 36020KT 9999 FEW033 14/10 Q1024 RMK FEW QUK 4 QUL 1 S VIS MAR 30 KM VIS MIN 9999 =
LIMV 270955Z /////KT 9999 FEW012 08/04 Q1024 RMK SCT MON N CIME INC S LIB VAL NIL VIS MIN 9999 =
LIMY 270955Z 28003KT 8000 BKN026 SCT033 07/06 Q1026 RMK OVC VAL FOSCHIA VIS MIN 8000 =
TAF
TAF LIPA 270800Z 2709/2718 VRB03KT CAVOK =
TAF LIPB 270500Z 2706/2806 VRB05KT 9999 SCT060 BECMG 2710/2712 18010KT BECMG 2716/2718 VRB05KT =
TAF LIPC 270800Z 2709/2718 06012KT CAVOK =
TAF LIPE 270500Z 2706/2806 VRB05KT 3000 BR SCT020 TEMPO 2706/2707 0500 FG BKN008 BECMG 2709/2711 05010KT 8000 =
TAF LIPH 270500Z 2706/2806 VRB05KT 9999 FEW040 =
TAF LIPI 270800Z 2709/2718 VRB03KT CAVOK =
TAF LIPL 270800Z 2709/2718 09005KT 9999 FEW060 =
TAF LIPO 270500Z 2706/2806 VRB05KT 8000 BKN070 =
TAF LIPQ 270500Z 2706/2806 08010KT CAVOK BECMG 2708/2710 VRB05KT =
TAF LIPR 270800Z 2709/2718 04013KT CAVOK =
TAF LIPS 270800Z 2709/2718 VRB05KT CAVOK =
TAF LIPX 270800Z 2709/2718 VRB05KT 9999 SCT060 =
TAF LIPY 270500Z 2706/2806 02010KT 9999 FEW040 BECMG 2718/2721 VRB05KT =
TAF LIPZ 270500Z 2706/2812 03010KT 9999 FEW040 BECMG 2708/2710 VRB05KT =
TAF LIMC 270500Z 2706/2812 07005KT 8000 BKN060 =
TAF LIME 270500Z 2706/2806 VRB05KT 8000 BKN050 =
TAF LIMF 270500Z 2706/2806 VRB05KT 8000 BKN030 =
TAF LIMJ 270500Z 2706/2806 03010KT CAVOK =
TAF LIML 270500Z 2706/2806 VRB05KT 8000 BKN070 =
TAF LIMN 270800Z 2709/2718 04005KT 9999 SCT060 =
TAF LIMS 270800Z 2709/2718 09006KT 4000 BR BKN060 BECMG 2709/2711 CAVOK =
SR / SS: 05:00 / 17:34 UTC (Effemeridi Aeroporto di Padova - LIPU 2017-03-27)

Immagini e previsioni meteo non aeronautiche

 

 

Immagini dal Radar Meteorologico del sito ARPAV. Orario UTC.

 

Immagine dal sito Meteo Sat Online

 

Legenda codici ICAO del nord Italia

 

In ordine di codice   In ordine di località
LIMC
Milano / Malpensa LIMG Albenga
LIME Bergamo / Orio Al Serio LIPA Aviano
LIMF Torino / Caselle LIME Bergamo / Orio Al Serio
LIMG Albenga LIPE Bologna / Borgo Panigale
LIMH Pian Rosa LIPB Bolzano
LIMJ Genova / Sestri LIPL Brescia / Ghedi
LIMK Torino / Bric Della Croce LIPO Brescia / Montichiari
LIML Milano / Linate LIMU Capo Mele
LIMN Novara / Cameri LIPC Cervia
LIMO Monte Bisbino LIVD Dobbiaco
LIMS Piacenza LIPP Dova Area Control Center
LIMT Passo Della Cisa LIPY Falconara
LIMU Capo Mele LIPF Ferrara
LIMV Passo Dei Giovi LIPK Forli
LIMY Monte Malanotte LIVF Frontone
LIPA Aviano LIMJ Genova / Sestri
LIPB Bolzano LIML Milano / Linate
LIPC Cervia
LIMC
Milano / Malpensa
LIPD Udine / Campoformido LIMO Monte Bisbino
LIPE Bologna / Borgo Panigale LIVC Monte Cimone
LIPF Ferrara LIMY Monte Malanotte
LIPH Treviso / S. Angelo LIMN Novara / Cameri
LIPI Udine / Rivolto LIPU Padova
LIPK Forli LIVP Paganella
LIPL Brescia / Ghedi LIMV Passo Dei Giovi
LIPO Brescia / Montichiari LIMT Passo Della Cisa
LIPP Dova Area Control Center LIVR Passo Rolle
LIPQ Ronchi Dei Legionari LIMS Piacenza
LIPR Rimini LIMH Pian Rosa
LIPS Treviso / Istrana LIVM Punta Marina
LIPT Vicenza LIVE Resia Pass
LIPU Padova LIPR Rimini
LIPX Verona / Villafranca LIPQ Ronchi Dei Legionari
LIPY Falconara LIVO Tarvisio
LIPZ Venezia / Tessera LIMK Torino / Bric Della Croce
LIVC Monte Cimone LIMF Torino / Caselle
LIVD Dobbiaco LIPS Treviso / Istrana
LIVE Resia Pass LIPH Treviso / S. Angelo
LIVF Frontone LIVT
Trieste
LIVM Punta Marina LIPD Udine / Campoformido
LIVO Tarvisio LIPI Udine / Rivolto
LIVP Paganella LIPZ Venezia / Tessera
LIVR Passo Rolle LIPX Verona / Villafranca
LIVT Trieste LIPT Vicenza

 

 

 

 

 

 

 

 

 

 

 

 

 

 

 

 

 

 

 

 

 

 

 

 

 

 

 

 

 

 

 

 

 

 

 

 

 

 

 

 

 

 

 

 

 

 

 

 

 

 

 

 

 

 

 

 

 

 

 

 

L'Aeroclub di Padova si limita a riportare informazioni fornite da terze parti, e non ha quindi alcuna responsabilità sul contenuto. Per la pianificazione dei propri voli si raccomanda l'utilizzo delle fonti ufficiali.

Copyright 2011. Free joomla templates | © Aeroclub Padova - Scuola di Volo, Ditta di manutenzione, CAMO Via Sorio, 89 - 35141 Padova Tel. 049 8718599 Fax 049 8717699 info@aeroclubpadova.it